Time;durP1;ratioP1;P1;durP2;ratioP2;P2;SDS_P1;SDS_P2;PMS_P1;PMS_P2;Temp;Humidity;BMP_temperature;BMP_pressure;BME280_temperature;BME280_humidity;BME280_pressure;Samples;Min_cycle;Max_cycle;Signal;HPM_P1;HPM_P2
2023/08/19 00:02:06;;;;;;;7.90;3.83;;;23.90;72.40;;;;;;5028339;28;21044;-79
2023/08/19 00:04:34;;;;;;;8.50;4.43;;;23.90;72.50;;;;;;5030543;28;20535;-79
2023/08/19 00:07:04;;;;;;;10.30;4.40;;;23.90;72.60;;;;;;5028236;28;20463;-78
2023/08/19 00:09:34;;;;;;;8.70;4.37;;;23.80;72.50;;;;;;5024486;28;20491;-78
2023/08/19 00:12:03;;;;;;;8.50;4.10;;;23.80;72.50;;;;;;5033747;28;20947;-79
2023/08/19 00:14:31;;;;;;;7.97;4.20;;;23.80;72.60;;;;;;5032285;28;20558;-78
2023/08/19 00:17:00;;;;;;;10.73;4.70;;;23.70;72.80;;;;;;5029991;28;21147;-78
2023/08/19 00:19:29;;;;;;;12.63;4.77;;;23.60;72.80;;;;;;5040427;28;20466;-79
2023/08/19 00:21:58;;;;;;;7.37;4.27;;;23.60;73.00;;;;;;5026248;28;20456;-78
2023/08/19 00:24:27;;;;;;;7.37;4.27;;;23.60;73.10;;;;;;5035744;28;20538;-78
2023/08/19 00:26:57;;;;;;;8.10;3.77;;;23.60;73.20;;;;;;5031716;28;20542;-77
2023/08/19 00:29:25;;;;;;;8.83;4.10;;;23.60;73.20;;;;;;5023668;28;20472;-77
2023/08/19 00:31:53;;;;;;;7.33;3.83;;;23.60;73.20;;;;;;5030855;28;20566;-78
2023/08/19 00:34:22;;;;;;;7.10;4.13;;;23.60;73.30;;;;;;5025724;28;20484;-78
2023/08/19 00:36:50;;;;;;;7.43;4.20;;;23.70;73.30;;;;;;5017156;28;20456;-79
2023/08/19 00:39:18;;;;;;;8.10;3.70;;;23.70;73.30;;;;;;5021597;28;20467;-77
2023/08/19 00:41:48;;;;;;;6.77;4.03;;;23.70;73.30;;;;;;5031726;28;20685;-80
2023/08/19 00:44:16;;;;;;;9.07;3.73;;;23.70;73.20;;;;;;5026910;28;20550;-78
2023/08/19 00:46:44;;;;;;;8.97;4.33;;;23.60;73.20;;;;;;5026692;28;20451;-79
2023/08/19 00:49:12;;;;;;;7.97;5.00;;;23.60;73.20;;;;;;5026056;28;20484;-80
2023/08/19 00:51:40;;;;;;;6.13;3.80;;;23.60;73.20;;;;;;5025255;28;20467;-77
2023/08/19 00:54:08;;;;;;;8.83;3.80;;;23.60;73.20;;;;;;5021068;28;20571;-77
2023/08/19 00:56:37;;;;;;;7.53;4.03;;;23.50;73.20;;;;;;5027443;28;21042;-77
2023/08/19 00:59:06;;;;;;;7.60;4.27;;;23.50;73.20;;;;;;5033831;28;20463;-78
2023/08/19 01:01:34;;;;;;;8.90;4.47;;;23.50;73.20;;;;;;5018915;28;20476;-78
2023/08/19 01:04:03;;;;;;;9.70;4.33;;;23.50;73.30;;;;;;5028430;28;20463;-77
2023/08/19 01:06:40;;;;;;;7.27;4.33;;;23.40;73.30;;;;;;5020327;28;20456;-77
2023/08/19 01:09:21;;;;;;;11.63;4.60;;;23.40;73.30;;;;;;5040465;28;20539;-77
2023/08/19 01:12:06;;;;;;;8.80;4.77;;;23.40;73.30;;;;;;5026687;28;20501;-77
2023/08/19 01:14:44;;;;;;;8.80;3.70;;;23.40;73.30;;;;;;5052135;28;20939;-78
2023/08/19 01:17:16;;;;;;;7.50;3.90;;;23.30;73.40;;;;;;5032553;28;20542;-77
2023/08/19 01:19:45;;;;;;;8.67;4.50;;;23.30;73.40;;;;;;5030531;28;20542;-77
2023/08/19 01:23:09;;;;;;;6.83;3.73;;;23.20;73.40;;;;;;5031049;28;20970;-78
2023/08/19 01:25:42;;;;;;;7.97;3.83;;;23.20;73.40;;;;;;5022980;28;20525;-78
2023/08/19 01:28:10;;;;;;;13.97;4.67;;;23.20;73.40;;;;;;5023069;28;20482;-78
2023/08/19 01:30:38;;;;;;;7.00;3.60;;;23.10;73.50;;;;;;5051242;28;20554;-79
2023/08/19 01:33:07;;;;;;;9.13;3.80;;;23.10;73.60;;;;;;5022090;28;20452;-78
2023/08/19 01:35:40;;;;;;;7.40;4.50;;;23.10;73.70;;;;;;5022900;28;20467;-79
2023/08/19 01:38:11;;;;;;;9.33;4.30;;;23.10;73.70;;;;;;5028066;28;20452;-79
2023/08/19 01:40:42;;;;;;;7.07;4.10;;;23.10;73.70;;;;;;5053522;28;20842;-79
2023/08/19 01:43:12;;;;;;;10.40;4.20;;;23.20;73.70;;;;;;5029384;28;20506;-78
2023/08/19 01:45:41;;;;;;;9.20;4.30;;;23.10;73.70;;;;;;5026432;28;20451;-77
2023/08/19 01:48:09;;;;;;;6.97;4.27;;;23.10;73.70;;;;;;5028944;28;20514;-77
2023/08/19 01:50:37;;;;;;;12.60;4.20;;;23.10;73.80;;;;;;5028842;28;20452;-78
2023/08/19 01:53:05;;;;;;;7.90;4.90;;;23.00;73.80;;;;;;5029277;28;20543;-79
2023/08/19 01:55:33;;;;;;;11.63;4.10;;;23.00;73.80;;;;;;5033260;28;20497;-78
2023/08/19 01:58:03;;;;;;;7.63;3.73;;;23.00;73.90;;;;;;5057302;28;20538;-78
2023/08/19 02:00:31;;;;;;;7.90;4.70;;;23.00;73.90;;;;;;5027360;28;20612;-78
2023/08/19 02:02:59;;;;;;;7.10;3.77;;;23.00;74.00;;;;;;5023457;28;20462;-79
2023/08/19 02:05:28;;;;;;;8.67;4.13;;;23.00;74.00;;;;;;5025206;28;20455;-77
2023/08/19 02:07:57;;;;;;;8.30;4.30;;;23.00;74.00;;;;;;5018738;28;20510;-78
2023/08/19 02:10:26;;;;;;;7.33;4.00;;;22.90;74.00;;;;;;5026275;28;20526;-78
2023/08/19 02:12:54;;;;;;;9.53;4.10;;;22.90;74.00;;;;;;5034066;28;20544;-79
2023/08/19 02:15:23;;;;;;;7.30;4.13;;;22.90;74.00;;;;;;5032917;28;20993;-79
2023/08/19 02:17:51;;;;;;;10.13;3.90;;;22.90;74.00;;;;;;5031683;28;20462;-78
2023/08/19 02:20:19;;;;;;;10.03;4.37;;;22.90;73.90;;;;;;5026526;28;20451;-76
2023/08/19 02:22:47;;;;;;;8.03;4.23;;;22.80;73.90;;;;;;5025164;28;21391;-76
2023/08/19 02:25:16;;;;;;;7.63;4.30;;;22.80;73.90;;;;;;5021636;28;20922;-79
2023/08/19 02:27:44;;;;;;;9.37;4.80;;;22.70;74.00;;;;;;5021578;28;20463;-77
2023/08/19 02:30:29;;;;;;;8.23;4.10;;;22.70;74.10;;;;;;5023425;28;21100;-77
2023/08/19 02:32:57;;;;;;;8.43;4.70;;;22.70;74.20;;;;;;5023371;28;20987;-77
2023/08/19 02:35:26;;;;;;;8.47;4.43;;;22.70;74.20;;;;;;5021583;28;21311;-78
2023/08/19 02:37:54;;;;;;;8.03;5.50;;;22.70;74.20;;;;;;5024973;28;20873;-79
2023/08/19 02:40:22;;;;;;;9.70;5.10;;;22.70;74.20;;;;;;5026206;28;20464;-78
2023/08/19 02:42:50;;;;;;;9.70;4.80;;;22.70;74.30;;;;;;5023781;28;20497;-79
2023/08/19 02:45:18;;;;;;;8.30;4.70;;;22.60;74.20;;;;;;5022924;28;21776;-77
2023/08/19 02:47:47;;;;;;;13.23;4.73;;;22.60;74.20;;;;;;5026823;28;21045;-78
2023/08/19 02:50:15;;;;;;;8.10;4.50;;;22.50;74.20;;;;;;5036285;28;20521;-77
2023/08/19 02:52:43;;;;;;;8.53;4.83;;;22.50;74.40;;;;;;5027406;28;20463;-78
2023/08/19 02:55:12;;;;;;;11.40;4.10;;;22.40;74.60;;;;;;5022954;28;20985;-79
2023/08/19 02:57:39;;;;;;;9.80;4.60;;;22.40;74.70;;;;;;5044699;28;20913;-78
2023/08/19 03:00:10;;;;;;;11.50;4.67;;;22.50;74.80;;;;;;5022938;28;20463;-78
2023/08/19 03:02:39;;;;;;;13.37;5.40;;;22.50;74.80;;;;;;5023928;28;21222;-80
2023/08/19 03:05:10;;;;;;;9.63;4.70;;;22.40;74.80;;;;;;5020130;28;20537;-78
2023/08/19 03:07:38;;;;;;;8.70;5.03;;;22.40;74.80;;;;;;5028839;28;20496;-79
2023/08/19 03:10:07;;;;;;;10.80;5.37;;;22.40;74.90;;;;;;5027714;28;20452;-79
2023/08/19 03:12:36;;;;;;;8.10;4.73;;;22.40;75.00;;;;;;5024312;28;20473;-76
2023/08/19 03:15:06;;;;;;;9.57;4.57;;;22.40;74.90;;;;;;5021641;28;20934;-76
2023/08/19 03:17:34;;;;;;;9.53;4.50;;;22.30;74.90;;;;;;5026988;28;20491;-81
2023/08/19 03:20:03;;;;;;;8.40;4.77;;;22.30;75.00;;;;;;5031484;28;21259;-78
2023/08/19 03:22:34;;;;;;;11.57;5.10;;;22.30;75.10;;;;;;5027443;28;20455;-77
2023/08/19 03:25:02;;;;;;;8.50;4.40;;;22.30;75.20;;;;;;5031162;28;20554;-78
2023/08/19 03:27:31;;;;;;;11.10;4.60;;;22.30;75.20;;;;;;5023565;28;20835;-79
2023/08/19 03:29:59;;;;;;;7.63;4.43;;;22.30;75.20;;;;;;5030013;28;20466;-79
2023/08/19 03:32:27;;;;;;;8.17;4.13;;;22.30;75.10;;;;;;5025631;28;20479;-79
2023/08/19 03:34:55;;;;;;;8.70;5.17;;;22.20;75.10;;;;;;5028784;28;20553;-77
2023/08/19 03:37:24;;;;;;;10.17;4.80;;;22.20;75.20;;;;;;5023537;28;21002;-77
2023/08/19 03:39:54;;;;;;;8.57;5.57;;;22.20;75.20;;;;;;5024995;28;20578;-76
2023/08/19 03:42:22;;;;;;;9.27;4.67;;;22.20;75.20;;;;;;5024083;28;20479;-78
2023/08/19 03:44:50;;;;;;;8.67;4.60;;;22.10;75.20;;;;;;5021734;28;20981;-78
2023/08/19 03:47:19;;;;;;;10.00;5.00;;;22.10;75.30;;;;;;5021391;28;20555;-78
2023/08/19 03:49:47;;;;;;;9.27;5.80;;;22.10;75.40;;;;;;5024676;28;20456;-79
2023/08/19 03:52:15;;;;;;;9.03;4.53;;;22.00;75.40;;;;;;5032904;28;20487;-79
2023/08/19 03:54:50;;;;;;;9.83;5.40;;;21.90;75.60;;;;;;5022913;28;20468;-78
2023/08/19 03:57:21;;;;;;;10.60;5.10;;;21.90;75.70;;;;;;5020701;28;20508;-77
2023/08/19 03:59:50;;;;;;;9.93;6.50;;;21.90;75.70;;;;;;5021814;28;20452;-78
2023/08/19 04:02:19;;;;;;;8.57;5.57;;;21.90;75.80;;;;;;5021078;28;20485;-79
2023/08/19 04:04:58;;;;;;;10.10;5.23;;;21.80;75.90;;;;;;5022868;28;20821;-80
2023/08/19 04:07:27;;;;;;;10.23;5.33;;;21.80;76.10;;;;;;5025268;28;20518;-80
2023/08/19 04:09:56;;;;;;;8.73;4.93;;;21.80;76.20;;;;;;5023216;28;20558;-77
2023/08/19 04:12:27;;;;;;;7.67;4.87;;;21.80;76.30;;;;;;5026822;28;20520;-80
2023/08/19 04:14:56;;;;;;;10.67;4.87;;;21.90;76.40;;;;;;5022165;28;20459;-78
2023/08/19 04:17:24;;;;;;;9.90;5.37;;;22.00;76.40;;;;;;5022282;28;20504;-79
2023/08/19 04:19:52;;;;;;;8.80;4.10;;;22.00;76.30;;;;;;5027049;28;20883;-78
2023/08/19 04:22:20;;;;;;;10.20;4.67;;;22.10;76.20;;;;;;5028524;28;20542;-79
2023/08/19 04:24:50;;;;;;;8.60;5.17;;;22.10;76.20;;;;;;5023874;28;20551;-78
2023/08/19 04:27:19;;;;;;;10.20;4.50;;;22.10;76.10;;;;;;5020622;28;20506;-79
2023/08/19 04:29:49;;;;;;;8.40;4.80;;;22.10;75.90;;;;;;5029881;28;20505;-78
2023/08/19 04:32:18;;;;;;;10.20;4.80;;;22.20;75.80;;;;;;5033119;28;20485;-78
2023/08/19 04:34:47;;;;;;;7.30;4.50;;;22.20;75.80;;;;;;5025061;28;20464;-80
2023/08/19 04:37:15;;;;;;;8.30;4.60;;;22.20;75.60;;;;;;5029363;28;20511;-79
2023/08/19 04:39:43;;;;;;;11.53;4.17;;;22.20;75.60;;;;;;5032702;28;21067;-79
2023/08/19 04:42:18;;;;;;;7.40;4.63;;;22.10;75.50;;;;;;5025426;28;20456;-79
2023/08/19 04:44:46;;;;;;;9.70;5.27;;;22.10;75.60;;;;;;5027868;28;20455;-78
2023/08/19 04:47:16;;;;;;;8.50;4.73;;;22.20;75.60;;;;;;5024846;28;21100;-78
2023/08/19 04:49:44;;;;;;;7.63;5.00;;;22.20;75.60;;;;;;5025741;28;21346;-79
2023/08/19 04:52:12;;;;;;;7.93;4.57;;;22.20;75.60;;;;;;5021627;28;20464;-79
2023/08/19 04:54:40;;;;;;;7.93;5.60;;;22.20;75.60;;;;;;5021887;28;20460;-78
2023/08/19 04:57:08;;;;;;;8.37;5.30;;;22.20;75.60;;;;;;5026148;28;20470;-76
2023/08/19 04:59:36;;;;;;;8.93;5.40;;;22.20;75.80;;;;;;5026320;28;20455;-78
2023/08/19 05:02:05;;;;;;;7.90;5.37;;;22.30;76.00;;;;;;5027670;28;20471;-79
2023/08/19 05:04:38;;;;;;;9.10;5.40;;;22.40;76.30;;;;;;5021470;28;20477;-78
2023/08/19 05:07:06;;;;;;;8.27;4.67;;;22.70;76.40;;;;;;5025893;28;20568;-78
2023/08/19 05:09:35;;;;;;;6.60;4.50;;;23.10;76.00;;;;;;5022637;28;20822;-79
2023/08/19 05:12:04;;;;;;;7.33;4.00;;;23.70;75.30;;;;;;5026322;28;20536;-78
2023/08/19 05:14:33;;;;;;;7.60;4.50;;;24.30;74.20;;;;;;5019752;28;20497;-78
2023/08/19 05:17:01;;;;;;;9.40;4.63;;;24.90;73.10;;;;;;5029093;28;20547;-78
2023/08/19 05:19:31;;;;;;;9.20;4.40;;;25.50;72.30;;;;;;5057730;28;20458;-78
2023/08/19 05:22:01;;;;;;;11.53;5.10;;;26.10;71.60;;;;;;5015154;28;20519;-79
2023/08/19 05:24:29;;;;;;;8.33;4.53;;;26.60;70.80;;;;;;5027796;28;20487;-77
2023/08/19 05:26:57;;;;;;;9.30;4.67;;;27.20;70.10;;;;;;5024194;28;20464;-78
2023/08/19 05:29:25;;;;;;;8.93;4.97;;;27.70;69.30;;;;;;5031568;28;20463;-77
2023/08/19 05:31:53;;;;;;;7.60;5.20;;;28.30;68.50;;;;;;5024215;28;20510;-78
2023/08/19 05:34:21;;;;;;;7.83;5.27;;;28.80;67.60;;;;;;5026155;28;20453;-78
2023/08/19 05:36:49;;;;;;;9.20;4.53;;;29.30;66.80;;;;;;5026175;28;20476;-78
2023/08/19 05:39:18;;;;;;;10.30;4.40;;;29.90;65.90;;;;;;5022506;28;20463;-77
2023/08/19 05:41:46;;;;;;;10.37;4.80;;;30.50;64.90;;;;;;5034725;28;20527;-77
2023/08/19 05:44:14;;;;;;;15.17;4.90;;;31.10;63.70;;;;;;5026491;28;20954;-78
2023/08/19 05:46:43;;;;;;;10.13;5.03;;;31.60;62.80;;;;;;5024963;28;20444;-77
2023/08/19 05:49:11;;;;;;;11.30;4.97;;;32.20;61.60;;;;;;5017184;28;20456;-77
2023/08/19 05:51:40;;;;;;;9.40;5.10;;;32.70;60.70;;;;;;5026614;28;20451;-78
2023/08/19 05:54:08;;;;;;;9.97;5.60;;;33.20;59.60;;;;;;5028459;28;20460;-78
2023/08/19 05:56:37;;;;;;;10.00;5.30;;;33.70;58.40;;;;;;5023793;28;20460;-77
2023/08/19 05:59:05;;;;;;;10.00;5.43;;;33.60;56.90;;;;;;5023267;28;20483;-78
2023/08/19 06:01:33;;;;;;;11.30;5.07;;;32.50;56.70;;;;;;5028316;28;20514;-77
2023/08/19 06:04:02;;;;;;;8.23;5.83;;;31.10;57.50;;;;;;5021872;28;20459;-77
2023/08/19 06:06:30;;;;;;;8.53;5.63;;;29.70;58.90;;;;;;5027211;28;20476;-78
2023/08/19 06:08:59;;;;;;;10.93;6.00;;;28.60;60.40;;;;;;5029277;28;20518;-78
2023/08/19 06:11:27;;;;;;;8.73;6.03;;;27.70;61.70;;;;;;5031470;28;20525;-78
2023/08/19 06:13:58;;;;;;;11.23;5.40;;;27.00;63.00;;;;;;5032967;28;20801;-77
2023/08/19 06:16:27;;;;;;;10.23;5.97;;;26.50;64.10;;;;;;5025263;28;20513;-76
2023/08/19 06:18:56;;;;;;;14.50;7.77;;;26.10;65.00;;;;;;5021195;28;20479;-77
2023/08/19 06:21:24;;;;;;;11.17;6.73;;;25.70;65.80;;;;;;5025241;28;20460;-77
2023/08/19 06:23:52;;;;;;;8.83;6.53;;;25.50;66.60;;;;;;5024650;28;20455;-78
2023/08/19 06:26:22;;;;;;;11.33;6.93;;;25.30;67.30;;;;;;5029094;28;20482;-77
2023/08/19 06:28:50;;;;;;;9.73;6.80;;;25.10;68.00;;;;;;5025617;28;20474;-77
2023/08/19 06:31:21;;;;;;;12.33;7.53;;;25.00;68.60;;;;;;5021233;28;20487;-76
2023/08/19 06:33:52;;;;;;;9.30;6.77;;;24.90;69.10;;;;;;5022592;28;20505;-77
2023/08/19 06:36:24;;;;;;;9.00;6.67;;;24.80;69.60;;;;;;5023409;28;20538;-77
2023/08/19 06:39:04;;;;;;;9.07;6.60;;;24.80;70.00;;;;;;5033066;28;20563;-77
2023/08/19 06:41:35;;;;;;;10.13;6.93;;;24.70;70.40;;;;;;5035600;28;20463;-76
2023/08/19 06:44:05;;;;;;;12.90;7.20;;;24.70;70.60;;;;;;5021007;28;20463;-76
2023/08/19 06:46:36;;;;;;;12.93;6.70;;;24.80;70.90;;;;;;5024626;28;20545;-76
2023/08/19 06:49:07;;;;;;;9.37;6.40;;;24.80;71.20;;;;;;5028609;28;20467;-75
2023/08/19 06:51:36;;;;;;;8.47;5.90;;;24.80;71.40;;;;;;5024726;28;20554;-75
2023/08/19 06:54:04;;;;;;;9.30;6.37;;;24.80;71.60;;;;;;5030258;28;20558;-77
2023/08/19 06:56:38;;;;;;;10.10;6.53;;;24.80;71.80;;;;;;5020425;28;20838;-78
2023/08/19 06:59:12;;;;;;;10.13;6.40;;;24.80;72.10;;;;;;5032406;28;20508;-77
2023/08/19 07:01:50;;;;;;;9.17;6.33;;;24.80;72.20;;;;;;5006152;28;20486;-76
2023/08/19 07:04:22;;;;;;;8.73;6.00;;;24.90;72.30;;;;;;5004071;28;20463;-77
2023/08/19 07:06:51;;;;;;;8.47;5.53;;;24.90;72.50;;;;;;5002764;28;20460;-77
2023/08/19 07:09:23;;;;;;;10.33;6.93;;;25.00;72.50;;;;;;5006577;28;20457;-76
2023/08/19 07:11:53;;;;;;;12.30;6.30;;;25.00;72.50;;;;;;4997205;28;20547;-78
2023/08/19 07:14:22;;;;;;;11.13;5.60;;;25.10;72.50;;;;;;5007444;28;20448;-77
2023/08/19 07:16:53;;;;;;;9.50;6.30;;;25.10;72.50;;;;;;5015215;28;20471;-77
2023/08/19 07:19:27;;;;;;;8.77;5.40;;;25.20;72.50;;;;;;5021682;28;20473;-77
2023/08/19 07:21:56;;;;;;;10.20;5.87;;;25.20;72.60;;;;;;5005962;28;20456;-78
2023/08/19 07:24:24;;;;;;;12.73;6.67;;;25.20;72.60;;;;;;5010304;28;20465;-77
2023/08/19 07:26:53;;;;;;;9.00;5.90;;;25.30;72.60;;;;;;4998442;28;20522;-78
2023/08/19 07:29:22;;;;;;;8.27;5.67;;;25.30;72.60;;;;;;5007508;28;20804;-77
2023/08/19 07:31:53;;;;;;;10.57;5.87;;;25.40;72.70;;;;;;4999057;28;20478;-77
2023/08/19 07:34:21;;;;;;;10.67;5.50;;;25.40;72.70;;;;;;5001315;28;20535;-75
2023/08/19 07:36:50;;;;;;;8.73;5.57;;;25.50;72.60;;;;;;4998223;28;20468;-76
2023/08/19 07:39:18;;;;;;;10.43;6.20;;;25.50;72.60;;;;;;5007865;28;20483;-77
2023/08/19 07:41:46;;;;;;;10.23;6.13;;;25.60;72.50;;;;;;5006654;28;20550;-78
2023/08/19 07:44:14;;;;;;;9.10;5.50;;;25.60;72.40;;;;;;5002407;28;20456;-77
2023/08/19 07:46:42;;;;;;;9.67;5.50;;;25.70;72.40;;;;;;4999315;28;20456;-78
2023/08/19 07:49:11;;;;;;;8.30;5.23;;;25.80;72.40;;;;;;4999200;28;20544;-77
2023/08/19 07:51:39;;;;;;;8.63;5.73;;;25.90;72.30;;;;;;5001131;28;20449;-78
2023/08/19 07:54:07;;;;;;;9.50;6.07;;;25.90;72.20;;;;;;5008196;28;20482;-79
2023/08/19 07:56:36;;;;;;;8.27;5.53;;;26.00;72.20;;;;;;5005008;28;20467;-78
2023/08/19 07:59:04;;;;;;;7.40;5.23;;;26.00;72.10;;;;;;5004504;28;20489;-76
2023/08/19 08:01:34;;;;;;;10.90;6.27;;;26.10;72.00;;;;;;5016043;28;20467;-78
2023/08/19 08:04:02;;;;;;;8.30;5.37;;;26.10;71.80;;;;;;5024652;28;20861;-79
2023/08/19 08:06:32;;;;;;;9.17;6.77;;;26.20;71.80;;;;;;5046423;28;20622;-78
2023/08/19 08:09:00;;;;;;;10.57;7.17;;;26.20;72.20;;;;;;5026561;28;20463;-76
2023/08/19 08:11:28;;;;;;;10.50;6.80;;;26.30;72.20;;;;;;5023885;28;20467;-77
2023/08/19 08:13:57;;;;;;;9.87;6.37;;;26.30;72.30;;;;;;5025747;28;20557;-78
2023/08/19 08:16:25;;;;;;;8.80;6.00;;;26.30;72.30;;;;;;5036351;28;21231;-77
2023/08/19 08:18:53;;;;;;;10.20;6.90;;;26.40;72.30;;;;;;5024863;28;20483;-76
2023/08/19 08:21:21;;;;;;;8.10;5.40;;;26.40;72.40;;;;;;5025416;28;20463;-76
2023/08/19 08:23:50;;;;;;;11.10;6.97;;;26.40;72.60;;;;;;5023700;28;20570;-80
2023/08/19 08:26:18;;;;;;;10.17;6.57;;;26.40;72.70;;;;;;5036540;28;20949;-80
2023/08/19 08:28:46;;;;;;;9.13;5.90;;;26.50;72.70;;;;;;5028653;28;20775;-81
2023/08/19 08:31:14;;;;;;;11.27;7.03;;;26.50;72.70;;;;;;5030164;28;20478;-79
2023/08/19 08:33:42;;;;;;;9.00;6.20;;;26.60;72.60;;;;;;5032344;28;20457;-79
2023/08/19 08:36:10;;;;;;;9.80;6.03;;;26.60;72.70;;;;;;5021490;28;20479;-80
2023/08/19 08:38:38;;;;;;;7.97;5.23;;;26.70;72.80;;;;;;5024597;28;20478;-80
2023/08/19 08:41:10;;;;;;;9.43;5.07;;;26.70;72.50;;;;;;5027449;28;20472;-81
2023/08/19 08:43:39;;;;;;;7.50;4.00;;;26.70;72.30;;;;;;5022760;28;20459;-80
2023/08/19 08:46:08;;;;;;;7.50;4.90;;;26.80;72.10;;;;;;5029456;28;20463;-79
2023/08/19 08:48:37;;;;;;;9.17;4.90;;;26.90;71.80;;;;;;5024983;28;20449;-79
2023/08/19 08:51:06;;;;;;;10.10;4.87;;;27.00;71.40;;;;;;5028969;28;20547;-79
2023/08/19 08:53:35;;;;;;;7.90;4.30;;;27.10;70.80;;;;;;5022748;28;20961;-79
2023/08/19 08:56:03;;;;;;;10.00;4.87;;;27.20;70.50;;;;;;5027423;28;20463;-80
2023/08/19 08:58:33;;;;;;;10.13;5.07;;;27.30;70.20;;;;;;5035543;28;20522;-79
2023/08/19 09:01:03;;;;;;;9.13;4.57;;;27.40;69.80;;;;;;5026235;28;20468;-80
2023/08/19 09:03:33;;;;;;;6.93;4.03;;;27.50;69.40;;;;;;5026745;28;20486;-80
2023/08/19 09:06:08;;;;;;;8.03;4.30;;;27.60;69.00;;;;;;5021505;28;20873;-80
2023/08/19 09:08:41;;;;;;;8.20;4.50;;;27.70;68.60;;;;;;5031413;28;20521;-79
2023/08/19 09:11:14;;;;;;;10.47;4.70;;;27.70;68.40;;;;;;5025044;28;20547;-80
2023/08/19 09:13:46;;;;;;;10.37;4.13;;;27.80;68.10;;;;;;5023286;28;20900;-80
2023/08/19 09:16:14;;;;;;;11.20;5.07;;;27.80;67.80;;;;;;5029351;28;20506;-80
2023/08/19 09:18:43;;;;;;;16.00;4.63;;;27.90;67.70;;;;;;5024908;28;20546;-80
2023/08/19 09:21:11;;;;;;;6.77;3.90;;;27.90;67.40;;;;;;5025054;28;20459;-79
2023/08/19 09:23:40;;;;;;;9.27;4.73;;;28.00;67.10;;;;;;5021878;28;20919;-79
2023/08/19 09:26:10;;;;;;;6.17;3.93;;;28.00;66.90;;;;;;5027498;28;20475;-80
2023/08/19 09:28:39;;;;;;;9.93;4.40;;;28.10;66.80;;;;;;5028043;28;20471;-81
2023/08/19 09:31:22;;;;;;;7.40;3.90;;;28.20;66.70;;;;;;5027116;28;21237;-81
2023/08/19 09:33:50;;;;;;;7.60;4.07;;;28.30;66.30;;;;;;5024102;28;20472;-79
2023/08/19 09:36:18;;;;;;;8.50;4.23;;;28.30;66.30;;;;;;5026565;28;22643;-79
2023/08/19 09:38:52;;;;;;;12.50;4.70;;;28.30;66.10;;;;;;5023331;28;20558;-81
2023/08/19 09:41:21;;;;;;;8.40;4.17;;;28.30;65.70;;;;;;5019649;28;20509;-80
2023/08/19 09:43:49;;;;;;;9.00;4.50;;;28.40;65.70;;;;;;5019141;28;20477;-80
2023/08/19 09:46:18;;;;;;;12.03;3.80;;;28.40;65.70;;;;;;5021229;28;21081;-79
2023/08/19 09:48:54;;;;;;;10.57;4.70;;;28.40;65.70;;;;;;5022432;28;20506;-79
2023/08/19 09:51:24;;;;;;;7.77;4.67;;;28.50;65.60;;;;;;5030868;28;20453;-80
2023/08/19 09:53:53;;;;;;;9.63;3.87;;;28.60;65.60;;;;;;5022086;28;21190;-81
2023/08/19 09:56:22;;;;;;;8.50;4.47;;;28.60;65.50;;;;;;5023650;28;20924;-79
2023/08/19 09:58:51;;;;;;;13.27;4.50;;;28.70;65.50;;;;;;5020795;28;20840;-80
2023/08/19 10:01:20;;;;;;;13.10;4.53;;;28.70;65.60;;;;;;5024216;28;20480;-80
2023/08/19 10:03:48;;;;;;;8.20;4.40;;;28.70;65.60;;;;;;5021669;28;20491;-80
2023/08/19 10:06:26;;;;;;;9.10;4.30;;;28.80;65.40;;;;;;5021006;28;20971;-80
2023/08/19 10:08:59;;;;;;;9.03;4.00;;;28.80;65.10;;;;;;5022080;28;20460;-81
2023/08/19 10:11:30;;;;;;;7.00;3.10;;;28.90;64.90;;;;;;5021970;28;20951;-81
2023/08/19 10:14:01;;;;;;;9.37;4.10;;;29.00;64.70;;;;;;5022252;28;20521;-80
2023/08/19 10:16:32;;;;;;;10.13;4.03;;;29.00;64.40;;;;;;5020874;28;20551;-80
2023/08/19 10:19:01;;;;;;;11.30;3.90;;;29.20;64.30;;;;;;5020769;28;20448;-80
2023/08/19 10:21:32;;;;;;;15.20;4.93;;;29.30;64.20;;;;;;5021510;28;20508;-80
2023/08/19 10:24:01;;;;;;;9.47;4.20;;;29.30;64.10;;;;;;5029149;28;20457;-80
2023/08/19 10:26:30;;;;;;;16.80;5.17;;;29.30;63.90;;;;;;5019778;28;20536;-80
2023/08/19 10:29:05;;;;;;;8.00;3.63;;;29.40;63.80;;;;;;5026131;28;20959;-80
2023/08/19 10:31:35;;;;;;;7.47;3.90;;;29.50;63.60;;;;;;5029584;28;20493;-81
2023/08/19 10:34:10;;;;;;;9.93;3.40;;;29.60;63.30;;;;;;5031679;28;20426;-81
2023/08/19 10:36:40;;;;;;;10.13;3.40;;;29.60;62.90;;;;;;5023053;28;20457;-78
2023/08/19 10:47:10;;;;;;;6.97;3.60;;;29.80;62.20;;;;;;5021659;28;20476;-79
2023/08/19 10:49:38;;;;;;;11.17;4.10;;;29.80;62.00;;;;;;5025735;28;20907;-79
2023/08/19 10:52:08;;;;;;;14.70;5.17;;;29.80;61.80;;;;;;5023216;28;20539;-79
2023/08/19 10:54:39;;;;;;;9.37;4.53;;;29.90;61.40;;;;;;5037792;28;20888;-79
2023/08/19 10:57:12;;;;;;;9.00;3.80;;;29.90;61.50;;;;;;5021921;28;20458;-79
2023/08/19 10:59:42;;;;;;;10.80;4.50;;;30.00;61.50;;;;;;5019405;28;20578;-80
2023/08/19 11:02:11;;;;;;;16.77;4.80;;;30.00;61.60;;;;;;5023141;28;20458;-79
2023/08/19 11:04:41;;;;;;;11.37;4.67;;;30.10;61.80;;;;;;5024089;28;21431;-80
2023/08/19 11:07:11;;;;;;;11.17;4.40;;;30.10;61.50;;;;;;5025303;28;20463;-78
2023/08/19 11:09:42;;;;;;;9.83;4.07;;;30.20;61.60;;;;;;5026183;28;20470;-78
2023/08/19 11:12:11;;;;;;;7.83;3.90;;;30.20;61.30;;;;;;5018651;28;20954;-79
2023/08/19 11:14:39;;;;;;;10.83;4.00;;;30.20;60.90;;;;;;5026680;28;20458;-79
2023/08/19 11:17:07;;;;;;;12.93;4.53;;;30.30;60.80;;;;;;5022242;28;20510;-78
2023/08/19 11:19:35;;;;;;;14.50;4.30;;;30.40;60.90;;;;;;5022578;28;20866;-79
2023/08/19 11:22:04;;;;;;;7.23;3.67;;;30.50;60.80;;;;;;5014885;28;20463;-79
2023/08/19 11:24:34;;;;;;;9.83;3.80;;;30.60;60.60;;;;;;5026636;28;20993;-79
2023/08/19 11:27:02;;;;;;;6.93;3.70;;;30.60;60.20;;;;;;5025098;28;20509;-78
2023/08/19 11:29:30;;;;;;;7.53;3.80;;;30.60;60.30;;;;;;5023939;28;20455;-78
2023/08/19 11:32:00;;;;;;;15.67;3.73;;;30.70;60.10;;;;;;5018110;28;20451;-78
2023/08/19 11:34:29;;;;;;;9.63;4.07;;;30.70;59.60;;;;;;5021405;28;20542;-79
2023/08/19 11:36:57;;;;;;;8.53;3.40;;;30.80;59.30;;;;;;5024389;28;20556;-78
2023/08/19 11:39:33;;;;;;;10.67;3.53;;;30.90;58.90;;;;;;5022529;28;20463;-78
2023/08/19 11:42:02;;;;;;;9.57;4.10;;;31.00;58.50;;;;;;5020746;28;20491;-79
2023/08/19 11:44:32;;;;;;;10.57;4.30;;;31.00;58.50;;;;;;5020389;28;21095;-78
2023/08/19 11:47:00;;;;;;;9.03;3.80;;;31.00;58.60;;;;;;5019270;28;20448;-79
2023/08/19 11:49:32;;;;;;;15.03;3.97;;;31.00;58.50;;;;;;5022876;28;20864;-79
2023/08/19 11:52:00;;;;;;;10.03;4.23;;;30.90;58.40;;;;;;5018624;28;20514;-78
2023/08/19 11:54:29;;;;;;;10.13;3.80;;;30.90;58.30;;;;;;5022943;28;20965;-78
2023/08/19 11:57:02;;;;;;;9.77;3.70;;;30.90;58.20;;;;;;5020066;28;21254;-80
2023/08/19 11:59:31;;;;;;;9.13;3.70;;;30.90;58.20;;;;;;5019549;28;20545;-78
2023/08/19 12:02:03;;;;;;;11.90;4.03;;;30.90;58.10;;;;;;5021432;28;20483;-78
2023/08/19 12:04:33;;;;;;;8.27;3.70;;;31.00;58.10;;;;;;5020610;28;20444;-79
2023/08/19 12:07:04;;;;;;;9.33;3.73;;;31.00;58.10;;;;;;5022537;28;20523;-78
2023/08/19 12:09:35;;;;;;;11.13;3.70;;;31.00;57.90;;;;;;5038604;28;20467;-78
2023/08/19 12:12:08;;;;;;;7.00;3.90;;;31.10;57.90;;;;;;5019674;28;20447;-77
2023/08/19 12:14:38;;;;;;;9.63;4.07;;;31.10;58.00;;;;;;5036285;28;20453;-77
2023/08/19 12:25:09;;;;;;;8.43;4.43;;;31.30;57.70;;;;;;5017664;28;20468;-79
2023/08/19 12:27:38;;;;;;;8.30;4.20;;;31.30;57.90;;;;;;5024930;28;20444;-79
2023/08/19 12:30:12;;;;;;;9.87;3.83;;;31.40;58.10;;;;;;5021127;28;21017;-79
2023/08/19 12:32:40;;;;;;;11.80;4.27;;;31.40;57.90;;;;;;5019854;28;20890;-79
2023/08/19 12:35:09;;;;;;;8.63;3.63;;;31.50;57.50;;;;;;5024441;28;20422;-78
2023/08/19 12:37:37;;;;;;;11.57;3.83;;;31.50;56.90;;;;;;5019911;28;20979;-79
2023/08/19 12:40:09;;;;;;;7.57;3.73;;;31.50;56.60;;;;;;5017763;28;20904;-78
2023/08/19 12:42:41;;;;;;;11.13;3.80;;;31.50;56.50;;;;;;5021686;28;20459;-79
2023/08/19 12:45:16;;;;;;;11.47;4.03;;;31.60;56.60;;;;;;5015636;28;20459;-79
2023/08/19 12:47:46;;;;;;;9.63;4.17;;;31.60;56.70;;;;;;5021482;28;20858;-79
2023/08/19 12:50:15;;;;;;;11.40;4.13;;;31.60;56.90;;;;;;5017921;28;20455;-78
2023/08/19 12:52:44;;;;;;;10.67;3.93;;;31.80;56.80;;;;;;5030648;28;20421;-79
2023/08/19 12:55:13;;;;;;;9.10;4.07;;;31.80;56.70;;;;;;5018840;28;20970;-79
2023/08/19 12:57:43;;;;;;;11.37;4.57;;;31.80;56.60;;;;;;5019179;28;21041;-78
2023/08/19 13:00:13;;;;;;;11.37;4.00;;;31.90;56.50;;;;;;5025290;28;20538;-78
2023/08/19 13:02:42;;;;;;;10.27;4.47;;;31.90;56.30;;;;;;5025072;28;20577;-78
2023/08/19 13:05:11;;;;;;;12.80;4.00;;;31.90;56.10;;;;;;5030965;28;20422;-79
2023/08/19 13:07:40;;;;;;;8.90;3.63;;;31.90;56.10;;;;;;5024798;28;20455;-79
2023/08/19 13:10:10;;;;;;;13.23;4.43;;;31.90;55.90;;;;;;5029421;28;21076;-78
2023/08/19 13:12:39;;;;;;;10.53;3.70;;;32.00;56.20;;;;;;5023992;28;20550;-79